createdAt,value
2024-02-24T00:00:11.372Z,20.6
2024-02-24T00:05:37.155Z,20.6
2024-02-24T00:11:15.940Z,20.6
2024-02-24T00:16:54.966Z,20.6
2024-02-24T00:22:34.812Z,20.7
2024-02-24T00:28:14.095Z,20.7
2024-02-24T00:33:53.060Z,20.7
2024-02-24T00:39:16.937Z,20.7
2024-02-24T00:44:55.655Z,20.8
2024-02-24T00:50:34.836Z,20.8
2024-02-24T00:55:58.341Z,20.8
2024-02-24T01:01:37.304Z,20.8
2024-02-24T01:07:16.440Z,20.8
2024-02-24T01:12:55.616Z,20.8
2024-02-24T01:18:19.315Z,20.8
2024-02-24T01:23:58.639Z,20.8
2024-02-24T01:29:37.136Z,20.8
2024-02-24T01:35:16.510Z,20.8
2024-02-24T01:40:54.866Z,20.8
2024-02-24T01:46:33.196Z,20.8
2024-02-24T01:52:12.715Z,20.9
2024-02-24T01:57:51.104Z,20.8
2024-02-24T02:03:14.856Z,20.9
2024-02-24T02:08:38.736Z,20.9
2024-02-24T02:14:18.889Z,20.9
2024-02-24T02:19:26.882Z,20.9
2024-02-24T02:30:13.584Z,20.9
2024-02-24T02:35:54.950Z,20.9
2024-02-24T02:41:33.313Z,20.9
2024-02-24T02:47:17.440Z,20.9
2024-02-24T02:52:59.846Z,20.9
2024-02-24T02:58:39.074Z,20.9
2024-02-24T03:20:01.825Z,20.9
2024-02-24T03:25:40.265Z,21
2024-02-24T03:31:19.049Z,21
2024-02-24T03:36:58.519Z,21
2024-02-24T03:42:37.053Z,21
2024-02-24T03:53:24.470Z,21
2024-02-24T03:59:03.534Z,21
2024-02-24T04:04:42.064Z,21
2024-02-24T04:10:21.704Z,21
2024-02-24T04:16:01.053Z,21
2024-02-24T04:21:40.692Z,21
2024-02-24T04:27:19.200Z,21
2024-02-24T04:32:57.850Z,21
2024-02-24T04:38:37.644Z,21
2024-02-24T04:44:00.905Z,21
2024-02-24T04:49:25.092Z,21.1
2024-02-24T04:54:48.206Z,21
2024-02-24T05:00:11.326Z,21
2024-02-24T05:05:34.777Z,21
2024-02-24T05:10:58.892Z,21.1
2024-02-24T05:16:22.156Z,21.1
2024-02-24T05:21:31.273Z,21.1
2024-02-24T05:26:56.694Z,21.1
2024-02-24T05:32:19.741Z,21.1
2024-02-24T05:37:48.090Z,21.1
2024-02-24T05:43:12.971Z,21.1
2024-02-24T05:48:36.482Z,21.1
2024-02-24T05:54:18.420Z,21.1
2024-02-24T05:59:56.481Z,21.1
2024-02-24T06:05:35.642Z,21.1
2024-02-24T06:11:15.096Z,21.1
2024-02-24T06:16:53.802Z,21.1
2024-02-24T06:22:36.088Z,21.1
2024-02-24T06:27:58.957Z,21.1
2024-02-24T06:33:37.649Z,21.1
2024-02-24T06:39:17.031Z,21.1
2024-02-24T06:45:06.990Z,21.1
2024-02-24T06:51:02.779Z,21.1
2024-02-24T06:56:25.554Z,21.1
2024-02-24T07:02:07.096Z,21.1
2024-02-24T07:07:46.543Z,21.1
2024-02-24T07:13:26.647Z,21.1
2024-02-24T07:19:05.666Z,21.1
2024-02-24T07:24:45.757Z,21.1
2024-02-24T07:30:27.557Z,21.1
2024-02-24T07:41:18.697Z,21
2024-02-24T07:52:21.186Z,21
2024-02-24T07:57:59.548Z,21
2024-02-24T08:03:39.753Z,21
2024-02-24T08:09:19.375Z,21
2024-02-24T08:14:44.355Z,21
2024-02-24T08:25:46.906Z,21
2024-02-24T08:31:25.418Z,21
2024-02-24T08:37:05.483Z,21
2024-02-24T08:42:28.898Z,21
2024-02-24T08:47:51.913Z,21
2024-02-24T08:53:44.867Z,21
2024-02-24T08:59:23.453Z,21
2024-02-24T09:05:04.365Z,21
2024-02-24T09:10:44.218Z,21
2024-02-24T09:16:23.412Z,21
2024-02-24T09:21:47.487Z,21
2024-02-24T09:27:26.464Z,21
2024-02-24T09:33:05.110Z,21
2024-02-24T09:38:44.756Z,21
2024-02-24T09:44:07.988Z,21
2024-02-24T09:49:47.649Z,21
2024-02-24T09:55:28.394Z,21
2024-02-24T10:00:51.332Z,21
2024-02-24T10:06:31.069Z,21
2024-02-24T10:11:58.881Z,21
2024-02-24T10:17:22.089Z,21
2024-02-24T10:22:30.694Z,21
2024-02-24T10:28:11.755Z,21
2024-02-24T10:33:55.004Z,21
2024-02-24T10:40:18.710Z,21
2024-02-24T10:45:58.093Z,21
2024-02-24T10:51:38.376Z,21.1
2024-02-24T11:02:41.360Z,21
2024-02-24T11:08:22.477Z,21
2024-02-24T11:13:49.205Z,21
2024-02-24T11:19:39.854Z,21
2024-02-24T11:25:02.972Z,21
2024-02-24T11:30:41.740Z,21
2024-02-24T11:36:21.896Z,21
2024-02-24T11:42:01.234Z,21
2024-02-24T11:47:39.940Z,20.9
2024-02-24T11:53:23.135Z,20.9
2024-02-24T11:59:01.943Z,20.9
2024-02-24T12:04:41.051Z,20.9
2024-02-24T12:09:52.457Z,20.9
2024-02-24T12:15:31.132Z,20.9
2024-02-24T12:21:12.130Z,20.9
2024-02-24T12:26:50.605Z,20.9
2024-02-24T12:32:29.231Z,20.9
2024-02-24T12:38:08.861Z,20.9
2024-02-24T12:43:47.992Z,20.9
2024-02-24T12:49:36.544Z,20.9
2024-02-24T12:55:15.565Z,20.9
2024-02-24T13:00:57.042Z,20.9
2024-02-24T13:06:36.418Z,20.9
2024-02-24T13:12:16.428Z,20.9
2024-02-24T13:17:55.339Z,20.9
2024-02-24T13:23:19.223Z,20.9
2024-02-24T13:29:00.696Z,20.9
2024-02-24T13:34:24.880Z,20.8
2024-02-24T13:40:03.419Z,20.8
2024-02-24T13:45:41.945Z,20.8
2024-02-24T13:51:22.330Z,20.8
2024-02-24T13:57:00.990Z,20.8
2024-02-24T14:02:40.588Z,20.8
2024-02-24T14:08:21.301Z,20.8
2024-02-24T14:14:03.458Z,20.8
2024-02-24T14:19:43.840Z,20.8
2024-02-24T14:25:36.318Z,20.8
2024-02-24T14:31:28.849Z,20.8
2024-02-24T14:37:11.793Z,20.8
2024-02-24T14:42:50.841Z,20.8
2024-02-24T14:48:30.108Z,20.8
2024-02-24T14:54:09.330Z,20.8
2024-02-24T14:59:18.754Z,20.8
2024-02-24T15:05:08.580Z,20.8
2024-02-24T15:10:48.393Z,20.8
2024-02-24T15:16:34.556Z,20.8
2024-02-24T15:22:00.067Z,20.8
2024-02-24T15:27:43.414Z,20.8
2024-02-24T15:33:22.594Z,20.8
2024-02-24T15:39:01.961Z,20.8
2024-02-24T15:44:39.866Z,20.8
2024-02-24T15:50:20.497Z,20.7
2024-02-24T15:55:59.280Z,20.8
2024-02-24T16:01:38.547Z,20.7
2024-02-24T16:07:20.538Z,20.7
2024-02-24T16:13:01.680Z,20.7
2024-02-24T16:18:41.121Z,20.7
2024-02-24T16:24:22.647Z,20.7
2024-02-24T16:35:29.290Z,20.7
2024-02-24T16:41:08.074Z,20.6
2024-02-24T16:46:47.058Z,20.6
2024-02-24T16:52:27.828Z,20.6
2024-02-24T16:57:51.716Z,20.6
2024-02-24T17:03:30.715Z,20.6
2024-02-24T17:08:54.852Z,20.6
2024-02-24T17:14:19.129Z,20.6
2024-02-24T17:19:50.624Z,20.6
2024-02-24T17:25:30.298Z,20.6
2024-02-24T17:31:09.260Z,20.6
2024-02-24T17:42:12.491Z,20.6
2024-02-24T17:47:51.297Z,20.6
2024-02-24T17:53:30.601Z,20.6
2024-02-24T17:59:05.366Z,20.6
2024-02-24T18:04:44.907Z,20.6
2024-02-24T18:10:24.410Z,20.6
2024-02-24T18:15:31.919Z,20.6
2024-02-24T18:20:58.821Z,20.6
2024-02-24T18:26:40.469Z,20.6
2024-02-24T18:31:48.224Z,20.6
2024-02-24T18:37:28.118Z,20.6
2024-02-24T18:42:52.067Z,20.5
2024-02-24T18:48:34.504Z,20.5
2024-02-24T18:54:14.248Z,20.5
2024-02-24T18:59:52.857Z,20.5
2024-02-24T19:10:39.836Z,20.5
2024-02-24T19:16:21.965Z,20.5
2024-02-24T19:21:48.129Z,20.5
2024-02-24T19:27:29.118Z,20.5
2024-02-24T19:33:07.820Z,20.5
2024-02-24T19:38:47.181Z,20.5
2024-02-24T19:44:44.894Z,20.4
2024-02-24T19:50:24.884Z,20.4
2024-02-24T19:56:03.600Z,20.4
2024-02-24T20:01:50.437Z,20.4
2024-02-24T20:07:30.754Z,20.4
2024-02-24T20:13:09.931Z,20.4
2024-02-24T20:18:33.197Z,20.4
2024-02-24T20:24:12.779Z,20.4
2024-02-24T20:29:52.178Z,20.4
2024-02-24T20:35:40.871Z,20.4
2024-02-24T20:41:04.230Z,20.4
2024-02-24T20:46:43.245Z,20.4
2024-02-24T20:57:45.826Z,20.4
2024-02-24T21:03:26.209Z,20.4
2024-02-24T21:09:07.614Z,20.4
2024-02-24T21:14:46.938Z,20.4
2024-02-24T21:20:30.273Z,20.4
2024-02-24T21:26:09.176Z,20.4
2024-02-24T21:31:49.707Z,20.4
2024-02-24T21:37:32.136Z,20.4
2024-02-24T21:43:10.138Z,20.4
2024-02-24T21:48:49.901Z,20.4
2024-02-24T21:54:29.329Z,20.4
2024-02-24T22:00:08.342Z,20.4
2024-02-24T22:05:47.860Z,20.4
2024-02-24T22:11:27.565Z,20.5
2024-02-24T22:17:06.445Z,20.5
2024-02-24T22:22:49.113Z,20.5
2024-02-24T22:28:30.697Z,20.5
2024-02-24T22:34:24.415Z,20.6
2024-02-24T22:39:49.573Z,20.6
2024-02-24T22:45:28.481Z,20.6
2024-02-24T22:51:08.712Z,20.6
2024-02-24T22:56:35.790Z,20.6
2024-02-24T23:01:59.276Z,20.6
2024-02-24T23:07:23.314Z,20.6
2024-02-24T23:12:57.333Z,20.6
2024-02-24T23:18:21.206Z,20.7
2024-02-24T23:24:00.561Z,20.7
2024-02-24T23:29:39.234Z,20.7
2024-02-24T23:35:19.039Z,20.7
2024-02-24T23:40:59.563Z,20.8
2024-02-24T23:46:42.921Z,20.8
2024-02-24T23:52:22.303Z,20.8
2024-02-24T23:58:00.760Z,20.8
